Bookmark and Share
Track history (hours):
 

Vestborg

Last reported at 2014-Apr-17 09:26 UTC. Time now 2014-Apr-17 09:44 UTC.
Position N 62°27' E 006°09'.

Length 66 m; draft 3.5 m.

Type: Cargo ship. MMSI: 518120000.

NotesDate/timePositionNaut miles runAvg speedWind from/ knotsBaromVisibWave heightAir tempDewpointWater temp
2014-Apr-17 09:26N 62°27' E 006°09'1 1.2
2014-Apr-17 08:33N 62°28' E 006°09'0 0.0
2014-Apr-17 07:33N 62°28' E 006°09'0 0.0
2014-Apr-17 06:32N 62°28' E 006°09'0 0.0
2014-Apr-17 05:33N 62°28' E 006°09'0 0.0
2014-Apr-17 04:33N 62°28' E 006°09'0 0.0
2014-Apr-17 03:33N 62°28' E 006°09'0 0.0
2014-Apr-17 02:32N 62°28' E 006°09'0 0.0
2014-Apr-17 01:32N 62°28' E 006°09'0 0.0
2014-Apr-17 00:33N 62°28' E 006°09'0 0.0
2014-Apr-16 23:33N 62°28' E 006°09'0 0.0
2014-Apr-16 22:33N 62°28' E 006°09'0 0.0
2014-Apr-16 21:33N 62°28' E 006°09'0 0.0
2014-Apr-16 20:08N 62°28' E 006°09'0 0.0
2014-Apr-16 19:33N 62°28' E 006°09'0 0.0
2014-Apr-16 18:33N 62°28' E 006°09'0 0.0
2014-Apr-16 17:33N 62°28' E 006°09'0 0.0
2014-Apr-16 16:33N 62°28' E 006°09'2 1.8
2014-Apr-16 15:33N 62°29' E 006°06'8 8.1
2014-Apr-16 14:32N 62°36' E 006°16'115 7.2
2014-Apr-15 22:34N 63°28' E 010°02'8 8.2
2014-Apr-15 21:34N 63°27' E 010°20'2 2.4
2014-Apr-15 20:32N 63°27' E 010°25'0 0.0
2014-Apr-15 19:32N 63°27' E 010°25'0 0.0
2014-Apr-15 18:32N 63°27' E 010°25'0 0.0
2014-Apr-15 17:32N 63°27' E 010°25'0 0.0
2014-Apr-15 16:32N 63°27' E 010°25'0 0.0
2014-Apr-15 15:32N 63°27' E 010°25'0 0.0
2014-Apr-15 14:32N 63°27' E 010°25'0 0.0
2014-Apr-15 12:33N 63°27' E 010°25'0 0.0
2014-Apr-15 11:33N 63°27' E 010°25'3 2.9
2014-Apr-15 10:34N 63°27' E 010°19'10 9.1
2014-Apr-15 09:29N 63°29' E 009°57'  
2014-Apr-09 16:24N 59°15' E 005°21'6 7.3
2014-Apr-09 15:33N 59°12' E 005°31'8 8.1
2014-Apr-09 14:33N 59°08' E 005°45'8 7.9
2014-Apr-09 13:33N 59°01' E 005°52'7 7.1
2014-Apr-09 12:33N 58°56' E 006°01'6 2.6
2014-Apr-09 10:26N 58°52' E 006°09'0 0.0
2014-Apr-09 09:23N 58°52' E 006°09'2 2.1
2014-Apr-09 08:33N 58°53' E 006°06'1010.0
2014-Apr-09 07:33N 58°60' E 005°52'10 9.5
2014-Apr-09 06:33N 59°08' E 005°44'11 9.6
2014-Apr-09 05:27N 59°14' E 005°26'17 0.7
2014-Apr-08 04:20N 59°30' E 005°13'7 8.4
2014-Apr-08 03:33N 59°24' E 005°17'9 8.5
2014-Apr-08 02:33N 59°15' E 005°21'8 7.8
2014-Apr-08 01:33N 59°11' E 005°33'9 8.7
2014-Apr-08 00:33N 59°06' E 005°48'9 8.6
2014-Apr-07 23:33N 58°59' E 005°54'9 9.1
2014-Apr-07 22:33N 58°52' E 006°07'1 1.1
2014-Apr-07 21:33N 58°52' E 006°09'0 0.0
2014-Apr-07 20:33N 58°52' E 006°09'0 0.0
2014-Apr-07 19:33N 58°52' E 006°09'12 6.2
2014-Apr-07 17:33N 58°54' E 005°45'0 0.0
2014-Apr-07 16:33N 58°54' E 005°45'0 0.0
2014-Apr-07 15:33N 58°54' E 005°45'0 0.0
2014-Apr-07 14:33N 58°54' E 005°45'0 0.0
2014-Apr-07 13:33N 58°54' E 005°45'0 0.0
2014-Apr-07 12:33N 58°54' E 005°45'0 0.0
2014-Apr-07 11:34N 58°54' E 005°45'4 3.6
2014-Apr-07 10:33N 58°57' E 005°48'9 8.9
2014-Apr-07 09:33N 59°06' E 005°54'  

Dump ship's entire track history

sailing weather and tide predictions

Vestborg — E5U2070 — position and weather